Time;durP1;ratioP1;P1;durP2;ratioP2;P2;SDS_P1;SDS_P2;PMS_P1;PMS_P2;Temp;Humidity;BMP_temperature;BMP_pressure;BME280_temperature;BME280_humidity;BME280_pressure;Samples;Min_cycle;Max_cycle;Signal;HPM_P1;HPM_P2
2021/01/03 00:02:32;;;;;;;64.20;37.60;;;;;;;4.49;100.00;100163.63;5061681;28;20611;-31
2021/01/03 00:05:21;;;;;;;68.40;39.53;;;;;;;4.52;100.00;100162.78;5062414;28;20601;-31
2021/01/03 00:08:08;;;;;;;69.83;39.93;;;;;;;4.50;100.00;100161.06;5062517;28;20197;-31
2021/01/03 00:10:54;;;;;;;69.20;38.80;;;;;;;4.45;100.00;100151.59;5062304;28;20216;-31
2021/01/03 00:13:40;;;;;;;69.33;39.53;;;;;;;4.57;100.00;100161.16;5062986;28;20193;-31
2021/01/03 00:16:27;;;;;;;65.07;38.23;;;;;;;4.64;100.00;100157.84;5060718;28;20279;-31
2021/01/03 00:19:14;;;;;;;70.73;37.93;;;;;;;4.58;100.00;100161.19;5058718;28;20204;-31
2021/01/03 00:22:01;;;;;;;71.13;36.97;;;;;;;4.58;100.00;100152.66;5058459;28;20304;-31
2021/01/03 00:24:47;;;;;;;63.47;34.53;;;;;;;4.47;100.00;100153.34;5059742;28;20204;-32
2021/01/03 00:27:34;;;;;;;75.37;39.93;;;;;;;4.56;100.00;100149.19;5059260;28;20251;-31
2021/01/03 00:30:24;;;;;;;72.97;40.13;;;;;;;4.52;100.00;100155.13;5060064;28;20189;-31
2021/01/03 00:33:11;;;;;;;67.13;37.47;;;;;;;4.48;100.00;100154.22;5060564;28;20206;-31
2021/01/03 00:35:57;;;;;;;64.93;36.17;;;;;;;4.26;100.00;100154.72;5060558;28;20196;-32
2021/01/03 00:38:44;;;;;;;63.83;37.00;;;;;;;4.24;100.00;100152.16;5060277;28;20461;-31
2021/01/03 00:41:31;;;;;;;66.13;37.97;;;;;;;4.53;100.00;100147.47;5060130;28;20196;-31
2021/01/03 00:44:17;;;;;;;65.27;36.27;;;;;;;4.49;100.00;100145.69;5061317;28;20204;-32
2021/01/03 00:47:04;;;;;;;71.53;37.30;;;;;;;4.46;100.00;100145.63;5060433;28;20347;-31
2021/01/03 00:49:51;;;;;;;72.50;36.40;;;;;;;4.46;100.00;100141.38;5060323;28;20583;-31
2021/01/03 00:52:37;;;;;;;64.33;35.27;;;;;;;4.50;100.00;100144.84;5059506;28;20875;-32
2021/01/03 00:55:24;;;;;;;66.67;38.87;;;;;;;4.32;100.00;100147.16;5059997;28;20674;-31
2021/01/03 00:58:10;;;;;;;62.50;35.60;;;;;;;4.41;100.00;100153.25;5060121;28;20194;-31
2021/01/03 01:00:57;;;;;;;68.27;38.17;;;;;;;4.52;100.00;100147.44;5058758;28;20282;-31
2021/01/03 01:03:44;;;;;;;65.03;36.53;;;;;;;4.37;100.00;100143.81;5058360;28;20196;-31
2021/01/03 01:06:31;;;;;;;64.30;35.53;;;;;;;4.20;100.00;100142.69;5058081;28;20303;-31
2021/01/03 01:09:17;;;;;;;67.27;35.57;;;;;;;4.41;100.00;100152.38;5058763;28;20268;-31
2021/01/03 01:12:04;;;;;;;62.20;36.60;;;;;;;4.17;100.00;100146.94;5058370;28;20568;-31
2021/01/03 01:14:50;;;;;;;61.07;35.93;;;;;;;4.45;100.00;100149.03;5058262;28;20251;-31
2021/01/03 01:17:37;;;;;;;65.00;36.73;;;;;;;4.32;100.00;100148.00;5059362;28;20205;-33
2021/01/03 01:20:27;;;;;;;64.47;37.27;;;;;;;4.43;100.00;100154.13;5058173;28;20287;-30
2021/01/03 01:23:14;;;;;;;66.77;35.43;;;;;;;4.42;100.00;100151.56;5059549;28;20200;-31
2021/01/03 01:26:00;;;;;;;61.27;35.20;;;;;;;4.35;100.00;100158.31;5058705;28;20243;-31
2021/01/03 01:28:47;;;;;;;68.07;36.13;;;;;;;4.15;100.00;100149.47;5058712;28;20210;-31
2021/01/03 01:31:33;;;;;;;59.10;31.90;;;;;;;4.21;100.00;100158.91;5059703;28;20276;-31
2021/01/03 01:34:19;;;;;;;68.87;34.33;;;;;;;4.15;100.00;100163.13;5057900;28;20237;-31
2021/01/03 01:37:09;;;;;;;60.23;33.87;;;;;;;4.24;100.00;100164.09;5058664;28;20327;-31
2021/01/03 01:39:57;;;;;;;58.77;33.37;;;;;;;4.37;100.00;100166.88;5059192;28;20480;-37
2021/01/03 01:42:44;;;;;;;56.67;32.57;;;;;;;4.25;100.00;100165.81;5059475;28;20206;-32
2021/01/03 01:45:34;;;;;;;54.97;32.60;;;;;;;4.45;100.00;100174.66;5060776;28;20206;-31
2021/01/03 01:48:26;;;;;;;58.73;32.53;;;;;;;4.34;100.00;100160.84;5059496;28;20205;-31
2021/01/03 01:51:20;;;;;;;56.47;32.87;;;;;;;4.34;100.00;100160.84;5061809;28;20271;-31
2021/01/03 01:54:13;;;;;;;58.47;33.77;;;;;;;4.53;100.00;100162.81;5057702;28;20204;-31
2021/01/03 01:57:02;;;;;;;60.60;34.20;;;;;;;4.29;100.00;100158.22;5057634;28;20287;-31
2021/01/03 02:00:00;;;;;;;61.83;34.40;;;;;;;4.19;100.00;100163.19;5059671;28;20599;-32
2021/01/03 02:02:56;;;;;;;64.03;34.83;;;;;;;4.47;100.00;100158.47;5061132;28;20635;-32
2021/01/03 02:05:49;;;;;;;57.57;32.13;;;;;;;4.33;100.00;100154.00;5062157;28;20232;-31
2021/01/03 02:08:40;;;;;;;60.30;33.67;;;;;;;4.46;100.00;100151.63;5065076;28;20200;-31
2021/01/03 02:11:29;;;;;;;58.90;33.63;;;;;;;4.24;100.00;100153.84;5061005;28;20263;-31
2021/01/03 02:14:16;;;;;;;59.57;34.33;;;;;;;4.24;100.00;100147.03;5060582;28;20658;-31
2021/01/03 02:17:02;;;;;;;58.83;32.30;;;;;;;4.27;100.00;100147.06;5062557;28;20200;-31
2021/01/03 02:19:48;;;;;;;59.00;33.93;;;;;;;4.36;100.00;100144.66;5065143;28;20203;-31
2021/01/03 02:22:40;;;;;;;60.93;33.23;;;;;;;4.34;100.00;100145.47;5062853;28;20253;-31
2021/01/03 02:25:28;;;;;;;56.50;31.67;;;;;;;4.40;100.00;100142.97;5060808;28;20304;-31
2021/01/03 02:28:18;;;;;;;57.77;32.63;;;;;;;4.32;100.00;100142.03;5061889;28;20205;-31
2021/01/03 02:31:05;;;;;;;51.87;30.57;;;;;;;4.20;100.00;100137.56;5062823;28;20208;-31
2021/01/03 02:33:52;;;;;;;54.50;30.53;;;;;;;4.11;100.00;100128.06;5060934;28;20255;-31
2021/01/03 02:36:42;;;;;;;52.47;27.97;;;;;;;4.04;100.00;100135.63;5060623;28;20201;-31
2021/01/03 02:39:36;;;;;;;48.93;25.97;;;;;;;4.23;100.00;100139.31;5061129;28;20589;-31
2021/01/03 02:42:25;;;;;;;48.77;28.43;;;;;;;4.14;100.00;100133.25;5061649;28;20491;-31
2021/01/03 02:45:17;;;;;;;49.87;27.20;;;;;;;4.27;100.00;100133.41;5060921;28;20209;-31
2021/01/03 02:48:07;;;;;;;49.67;29.00;;;;;;;4.29;100.00;100137.72;5060552;28;20208;-31
2021/01/03 02:50:53;;;;;;;53.90;28.00;;;;;;;4.22;100.00;100132.47;5060457;28;20224;-31
2021/01/03 02:53:39;;;;;;;52.43;29.17;;;;;;;4.15;100.00;100134.09;5060256;28;20201;-31
2021/01/03 02:56:26;;;;;;;54.53;30.33;;;;;;;4.11;100.00;100127.22;5060755;28;20258;-31
2021/01/03 02:59:13;;;;;;;48.53;28.73;;;;;;;4.03;100.00;100123.66;5060433;28;20200;-31
2021/01/03 03:01:59;;;;;;;51.47;27.30;;;;;;;3.95;100.00;100121.00;5061175;28;20205;-31
2021/01/03 03:04:46;;;;;;;45.50;27.60;;;;;;;3.99;100.00;100119.38;5060052;28;20204;-31
2021/01/03 03:07:32;;;;;;;45.67;27.37;;;;;;;4.04;100.00;100115.16;5060383;28;20346;-31
2021/01/03 03:10:19;;;;;;;43.27;25.73;;;;;;;4.05;100.00;100111.75;5060323;28;20485;-31
2021/01/03 03:13:06;;;;;;;37.57;22.80;;;;;;;4.08;100.00;100111.81;5060266;28;20229;-31
2021/01/03 03:15:53;;;;;;;38.43;23.50;;;;;;;4.13;100.00;100112.75;5059884;28;20204;-31
2021/01/03 03:18:38;;;;;;;37.03;21.40;;;;;;;3.96;100.00;100109.94;5060290;28;20618;-31
2021/01/03 03:21:24;;;;;;;39.83;22.80;;;;;;;4.14;100.00;100109.34;5059804;28;20197;-31
2021/01/03 03:24:10;;;;;;;33.00;19.70;;;;;;;4.00;100.00;100111.69;5060237;28;20259;-31
2021/01/03 03:26:59;;;;;;;26.93;17.67;;;;;;;4.06;100.00;100103.25;5059501;28;20479;-30
2021/01/03 03:29:47;;;;;;;35.40;20.33;;;;;;;3.98;100.00;100104.84;5060208;28;20259;-31
2021/01/03 03:32:39;;;;;;;30.40;18.23;;;;;;;4.29;100.00;100108.69;5059543;28;20298;-31
2021/01/03 03:35:28;;;;;;;27.90;17.47;;;;;;;4.25;100.00;100107.78;5059988;28;20510;-31
2021/01/03 03:38:15;;;;;;;27.77;17.33;;;;;;;4.03;100.00;100098.06;5059459;28;20247;-30
2021/01/03 03:41:01;;;;;;;29.07;18.37;;;;;;;4.14;100.00;100097.41;5059461;28;20596;-31
2021/01/03 03:43:48;;;;;;;25.80;16.60;;;;;;;4.00;100.00;100090.34;5059492;28;20204;-31
2021/01/03 03:46:34;;;;;;;28.63;17.03;;;;;;;4.12;100.00;100088.84;5059188;28;20286;-31
2021/01/03 03:49:22;;;;;;;24.53;16.17;;;;;;;4.06;100.00;100098.13;5058912;28;20200;-31
2021/01/03 03:52:09;;;;;;;25.97;15.70;;;;;;;4.00;100.00;100092.91;5059252;28;20650;-31
2021/01/03 03:54:55;;;;;;;26.33;15.27;;;;;;;3.97;100.00;100088.63;5059351;28;20201;-31
2021/01/03 03:57:40;;;;;;;23.20;15.13;;;;;;;4.04;100.00;100094.69;5059003;28;20197;-31
2021/01/03 04:00:27;;;;;;;23.27;14.63;;;;;;;4.02;100.00;100092.09;5059151;28;20746;-31
2021/01/03 04:03:13;;;;;;;21.70;14.30;;;;;;;4.03;100.00;100100.63;5059158;28;20287;-31
2021/01/03 04:06:00;;;;;;;21.73;14.07;;;;;;;4.12;100.00;100098.22;5058833;28;20497;-31
2021/01/03 04:08:46;;;;;;;18.73;13.43;;;;;;;3.91;100.00;100105.59;5059543;28;20197;-31
2021/01/03 04:11:39;;;;;;;19.83;13.50;;;;;;;3.90;100.00;100096.19;5059405;28;20224;-31
2021/01/03 04:14:26;;;;;;;23.47;13.33;;;;;;;3.92;100.00;100097.06;5059555;28;20196;-31
2021/01/03 04:17:12;;;;;;;19.37;13.07;;;;;;;4.04;100.00;100100.66;5060395;28;20207;-31
2021/01/03 04:20:00;;;;;;;21.07;13.03;;;;;;;3.99;100.00;100102.31;5059849;28;20203;-31
2021/01/03 04:22:46;;;;;;;19.73;12.73;;;;;;;4.04;100.00;100103.22;5058084;28;20201;-31
2021/01/03 04:25:33;;;;;;;20.73;12.27;;;;;;;4.09;100.00;100110.97;5058564;28;20200;-31
2021/01/03 04:28:19;;;;;;;18.43;12.10;;;;;;;3.92;100.00;100105.59;5058729;28;20208;-31
2021/01/03 04:31:05;;;;;;;19.67;11.50;;;;;;;3.96;100.00;100102.25;5058756;28;20510;-31
2021/01/03 04:33:52;;;;;;;17.93;11.80;;;;;;;3.91;100.00;100100.47;5058354;28;20201;-31
2021/01/03 04:36:38;;;;;;;22.97;13.03;;;;;;;3.88;100.00;100108.09;5058263;28;20263;-31
2021/01/03 04:39:28;;;;;;;17.47;11.37;;;;;;;3.96;100.00;100104.81;5057895;28;20205;-31
2021/01/03 04:42:18;;;;;;;15.83;11.13;;;;;;;3.92;100.00;100099.63;5058672;28;20193;-31
2021/01/03 04:45:12;;;;;;;17.80;11.87;;;;;;;4.08;100.00;100105.00;5058534;28;20199;-31
2021/01/03 04:48:01;;;;;;;17.60;11.50;;;;;;;3.93;100.00;100111.59;5058390;28;20204;-31
2021/01/03 04:51:02;;;;;;;16.77;10.97;;;;;;;3.95;100.00;100107.34;5058119;28;20621;-31
2021/01/03 04:53:58;;;;;;;15.43;10.70;;;;;;;3.99;100.00;100114.25;5058012;28;20196;-31
2021/01/03 04:56:52;;;;;;;16.83;9.83;;;;;;;3.97;100.00;100105.69;5058390;28;20292;-31
2021/01/03 04:59:46;;;;;;;14.40;10.20;;;;;;;3.94;100.00;100108.19;5057859;28;20191;-31
2021/01/03 05:03:10;;;;;;;13.97;9.17;;;;;;;3.93;100.00;100112.44;5057914;28;20255;-31
2021/01/03 05:06:02;;;;;;;15.73;8.97;;;;;;;4.17;100.00;100114.53;5057551;28;20201;-31
2021/01/03 05:08:49;;;;;;;13.87;9.07;;;;;;;3.93;100.00;100116.69;5057559;28;20308;-31
2021/01/03 05:11:46;;;;;;;11.40;9.23;;;;;;;3.98;100.00;100121.06;5057924;28;20408;-31
2021/01/03 05:14:37;;;;;;;11.93;8.60;;;;;;;3.97;100.00;100118.47;5057981;28;20199;-31
2021/01/03 05:17:24;;;;;;;12.00;8.00;;;;;;;3.98;100.00;100117.66;5057454;28;20287;-32
2021/01/03 05:20:13;;;;;;;11.07;8.43;;;;;;;3.86;100.00;100109.75;5057693;28;20201;-31
2021/01/03 05:23:14;;;;;;;12.47;8.40;;;;;;;4.01;100.00;100121.09;5056787;28;20205;-31
2021/01/03 05:26:02;;;;;;;9.93;7.00;;;;;;;4.00;100.00;100123.63;5057971;28;20237;-31
2021/01/03 05:28:54;;;;;;;10.23;6.90;;;;;;;3.88;100.00;100114.06;5057977;28;20201;-31
2021/01/03 05:31:56;;;;;;;10.43;7.23;;;;;;;3.99;100.00;100125.34;5057815;28;20505;-31
2021/01/03 05:34:44;;;;;;;10.77;7.23;;;;;;;3.98;100.00;100125.31;5060778;28;20197;-31
2021/01/03 05:37:33;;;;;;;8.33;6.67;;;;;;;4.01;100.00;100121.09;5061956;28;20201;-31
2021/01/03 05:40:25;;;;;;;12.50;6.80;;;;;;;4.00;100.00;100126.19;5062016;28;20197;-31
2021/01/03 05:43:19;;;;;;;11.03;6.67;;;;;;;3.97;100.00;100123.59;5061037;28;20197;-30
2021/01/03 05:46:09;;;;;;;8.50;6.37;;;;;;;3.98;100.00;100133.84;5061367;28;20295;-31
2021/01/03 05:49:04;;;;;;;8.13;5.67;;;;;;;4.01;100.00;100131.31;5061224;28;20256;-31
2021/01/03 05:51:58;;;;;;;9.53;6.20;;;;;;;3.92;100.00;100133.75;5061618;28;20505;-31
2021/01/03 05:54:44;;;;;;;7.67;6.20;;;;;;;4.01;100.00;100133.00;5061927;28;20201;-31
2021/01/03 05:57:33;;;;;;;7.90;6.23;;;;;;;3.89;100.00;100135.41;5061473;28;20201;-31
2021/01/03 06:00:24;;;;;;;7.17;5.73;;;;;;;3.94;100.00;100138.91;5060362;28;20487;-31
2021/01/03 06:03:22;;;;;;;9.40;6.20;;;;;;;3.92;100.00;100136.31;5060443;28;20701;-30
2021/01/03 06:06:18;;;;;;;7.70;5.93;;;;;;;4.01;100.00;100140.69;5060888;28;20200;-31
2021/01/03 06:09:05;;;;;;;9.07;5.70;;;;;;;3.91;100.00;100151.63;5059879;28;20689;-31
2021/01/03 06:12:00;;;;;;;6.80;5.10;;;;;;;4.00;100.00;100144.09;5060684;28;20287;-31
2021/01/03 06:14:50;;;;;;;5.77;4.97;;;;;;;3.99;100.00;100147.50;5060798;28;20205;-32
2021/01/03 06:17:45;;;;;;;5.93;5.33;;;;;;;4.15;100.00;100146.91;5060443;28;20618;-31
2021/01/03 06:20:32;;;;;;;5.50;5.00;;;;;;;4.01;100.00;100151.78;5060967;28;20497;-32
2021/01/03 06:23:30;;;;;;;4.83;4.33;;;;;;;4.02;100.00;100145.84;5060783;28;20257;-31
2021/01/03 06:26:20;;;;;;;5.47;4.63;;;;;;;4.05;100.00;100157.81;5060439;28;20260;-31
2021/01/03 06:29:20;;;;;;;5.73;4.30;;;;;;;4.04;100.00;100150.97;5060951;28;20798;-32
2021/01/03 06:32:35;;;;;;;4.77;4.27;;;;;;;4.04;100.00;100151.84;5060219;28;20324;-31
2021/01/03 06:35:30;;;;;;;4.87;4.20;;;;;;;4.23;100.00;100163.22;5059945;28;20256;-31
2021/01/03 06:38:42;;;;;;;4.00;3.43;;;;;;;4.07;100.00;100161.28;5060385;28;20487;-31
2021/01/03 06:41:45;;;;;;;5.53;3.90;;;;;;;4.11;100.00;100147.69;5060711;28;20634;-31
2021/01/03 06:44:47;;;;;;;5.23;4.07;;;;;;;4.04;100.00;100156.97;5060679;28;20250;-32
2021/01/03 06:48:07;;;;;;;4.67;4.17;;;;;;;4.29;100.00;100152.22;5060885;28;20197;-31
2021/01/03 06:51:19;;;;;;;4.77;4.27;;;;;;;4.09;100.00;100150.22;5060644;28;20205;-31
2021/01/03 06:54:47;;;;;;;4.23;3.80;;;;;;;4.04;100.00;100150.97;5060752;28;20196;-32
2021/01/03 06:58:21;;;;;;;5.40;4.10;;;;;;;4.20;100.00;100157.22;5060454;28;20207;-31
2021/01/03 07:01:20;;;;;;;5.10;4.40;;;;;;;4.15;100.00;100165.69;4980440;28;20217;-33
2021/01/03 07:04:13;;;;;;;5.37;4.13;;;;;;;4.04;100.00;100161.22;5060009;28;20307;-32
2021/01/03 07:07:02;;;;;;;5.63;4.37;;;;;;;4.16;100.00;100166.56;5059933;28;20204;-31
2021/01/03 07:09:58;;;;;;;5.57;4.43;;;;;;;4.32;100.00;100160.81;5059805;28;20309;-31
2021/01/03 07:12:46;;;;;;;4.73;4.13;;;;;;;4.24;100.00;100156.41;5059953;28;20225;-31
2021/01/03 07:15:41;;;;;;;5.47;4.17;;;;;;;4.13;100.00;100154.56;5060118;28;20249;-31
2021/01/03 07:18:38;;;;;;;4.60;3.77;;;;;;;4.01;100.00;100153.50;5059597;28;20618;-31
2021/01/03 07:21:43;;;;;;;5.20;4.70;;;;;;;4.21;100.00;100157.22;5059707;28;20213;-32
2021/01/03 07:24:36;;;;;;;5.23;4.60;;;;;;;4.06;100.00;100154.44;5060188;28;20233;-31
2021/01/03 07:27:38;;;;;;;5.00;4.50;;;;;;;4.18;100.00;100158.91;5059647;28;20335;-31
2021/01/03 07:30:32;;;;;;;4.77;4.30;;;;;;;4.08;100.00;100153.63;5059503;28;20197;-31
2021/01/03 07:33:26;;;;;;;6.60;4.20;;;;;;;4.17;100.00;100163.16;5059730;28;20231;-31
2021/01/03 07:36:19;;;;;;;5.17;4.43;;;;;;;4.17;100.00;100163.16;5059637;28;20205;-32
2021/01/03 07:39:17;;;;;;;5.50;4.30;;;;;;;4.15;100.00;100164.81;5059149;28;20193;-31
2021/01/03 07:42:20;;;;;;;4.93;3.90;;;;;;;4.05;100.00;100163.81;5060507;28;20192;-31
2021/01/03 07:45:20;;;;;;;5.20;4.17;;;;;;;4.14;100.00;100173.34;5061103;28;20338;-31
2021/01/03 07:48:33;;;;;;;4.90;4.40;;;;;;;4.03;100.00;100172.28;5060530;28;20257;-31
2021/01/03 07:51:41;;;;;;;4.67;4.27;;;;;;;4.23;100.00;100172.59;5058947;28;20544;-31
2021/01/03 07:54:27;;;;;;;6.07;4.53;;;;;;;4.13;100.00;100167.34;5059422;28;20202;-30
2021/01/03 07:57:13;;;;;;;5.73;4.87;;;;;;;4.07;100.00;100181.75;5059152;28;20196;-29
2021/01/03 08:00:00;;;;;;;6.07;4.40;;;;;;;4.08;100.00;100173.22;5059046;28;20217;-31
2021/01/03 08:02:47;;;;;;;5.57;4.97;;;;;;;4.13;100.00;100176.72;5058895;28;20212;-31
2021/01/03 08:05:35;;;;;;;5.37;4.23;;;;;;;4.01;100.00;100181.63;5058987;28;20347;-31
2021/01/03 08:08:23;;;;;;;5.17;4.57;;;;;;;3.98;100.00;100181.63;5059614;28;20300;-30
2021/01/03 08:11:24;;;;;;;5.37;4.87;;;;;;;4.13;100.00;100182.72;5059295;28;20320;-30
2021/01/03 08:14:24;;;;;;;6.13;4.20;;;;;;;4.18;100.00;100185.34;5059359;28;20287;-30
2021/01/03 08:17:14;;;;;;;5.00;4.47;;;;;;;4.23;100.00;100190.53;5058954;28;20595;-30
2021/01/03 08:20:03;;;;;;;5.13;4.43;;;;;;;4.12;100.00;100195.50;5059056;28;20279;-30
2021/01/03 08:22:50;;;;;;;4.80;4.30;;;;;;;3.93;100.00;100191.78;5058851;28;20345;-30
2021/01/03 08:25:36;;;;;;;5.97;4.57;;;;;;;3.98;100.00;100192.72;5059295;28;20196;-30
2021/01/03 08:28:23;;;;;;;5.43;4.30;;;;;;;4.11;100.00;100193.75;5059043;28;20212;-30
2021/01/03 08:31:13;;;;;;;5.70;4.30;;;;;;;4.25;100.00;100192.28;5059920;28;20223;-31
2021/01/03 08:34:00;;;;;;;5.53;4.47;;;;;;;4.34;100.00;100192.44;5060458;28;20284;-30
2021/01/03 08:36:48;;;;;;;6.17;4.73;;;;;;;4.29;100.00;100194.06;5059008;28;20277;-30
2021/01/03 08:39:34;;;;;;;5.23;4.27;;;;;;;4.05;100.00;100194.53;5059771;28;20243;-32
2021/01/03 08:42:26;;;;;;;6.60;4.73;;;;;;;4.15;100.00;100198.09;5059761;28;20614;-30
2021/01/03 08:45:20;;;;;;;5.37;4.83;;;;;;;4.28;100.00;100196.59;5058488;28;20197;-30
2021/01/03 08:48:11;;;;;;;6.37;5.37;;;;;;;4.18;100.00;100203.28;5059781;28;20256;-29
2021/01/03 08:51:05;;;;;;;5.10;4.60;;;;;;;4.33;100.00;100205.22;5059103;28;20202;-30
2021/01/03 08:53:59;;;;;;;4.50;4.10;;;;;;;4.35;100.00;100199.28;5057808;28;20234;-31
2021/01/03 08:57:04;;;;;;;5.77;4.77;;;;;;;4.22;100.00;100207.56;5058765;28;20201;-32
2021/01/03 08:59:53;;;;;;;5.60;4.30;;;;;;;4.22;100.00;100206.72;5058352;28;20203;-31
2021/01/03 09:02:42;;;;;;;4.67;4.27;;;;;;;4.18;100.00;100205.84;5058613;28;20209;-30
2021/01/03 09:05:33;;;;;;;5.00;4.50;;;;;;;4.18;100.00;100205.84;5058837;28;20210;-30
2021/01/03 09:08:30;;;;;;;5.97;4.47;;;;;;;4.36;100.00;100198.44;5058598;28;20228;-30
2021/01/03 09:11:27;;;;;;;4.77;4.33;;;;;;;4.30;100.00;100210.28;5062510;28;20202;-31
2021/01/03 09:14:20;;;;;;;5.50;3.90;;;;;;;4.19;100.00;100219.50;5062425;28;20558;-30
2021/01/03 09:17:11;;;;;;;4.47;3.80;;;;;;;4.10;100.00;100205.69;5063110;28;20207;-30
2021/01/03 09:20:08;;;;;;;5.33;4.30;;;;;;;4.14;100.00;100207.47;5062838;28;20301;-30
2021/01/03 09:22:56;;;;;;;5.07;4.30;;;;;;;4.10;100.00;100213.38;5062191;28;20543;-30
2021/01/03 09:25:43;;;;;;;4.47;3.73;;;;;;;4.25;100.00;100214.44;5053806;28;20791;-31
2021/01/03 09:28:33;;;;;;;5.50;4.27;;;;;;;4.35;100.00;100212.06;5042291;28;20203;-31
2021/01/03 09:31:22;;;;;;;5.03;4.03;;;;;;;4.07;100.00;100210.75;5042205;28;20202;-31
2021/01/03 09:34:17;;;;;;;4.33;4.00;;;;;;;4.43;100.00;100215.59;5041754;28;20224;-32
2021/01/03 09:37:15;;;;;;;5.20;3.83;;;;;;;4.26;100.00;100217.03;5041769;28;20199;-31
2021/01/03 09:40:16;;;;;;;5.47;3.97;;;;;;;4.30;100.00;100212.84;5042558;28;20221;-31
2021/01/03 09:43:10;;;;;;;5.10;3.97;;;;;;;4.16;100.00;100215.19;5041808;28;20474;-31
2021/01/03 09:46:04;;;;;;;4.80;4.30;;;;;;;4.35;100.00;100217.19;5041838;28;20213;-31
2021/01/03 09:48:50;;;;;;;4.40;4.00;;;;;;;4.09;100.00;100224.44;5041938;28;20238;-33
2021/01/03 09:51:50;;;;;;;5.60;4.50;;;;;;;4.21;100.00;100220.34;5041840;28;20588;-31
2021/01/03 09:54:43;;;;;;;5.33;4.50;;;;;;;4.39;100.00;100226.66;5042017;28;20230;-31
2021/01/03 09:57:38;;;;;;;5.90;4.70;;;;;;;4.56;100.00;100224.34;5042349;28;20260;-31
2021/01/03 10:00:45;;;;;;;5.20;4.70;;;;;;;4.40;100.00;100212.13;5042589;28;20621;-31
2021/01/03 10:03:39;;;;;;;6.33;5.00;;;;;;;4.60;100.00;100212.41;5042173;28;20784;-32
2021/01/03 10:06:32;;;;;;;5.73;5.00;;;;;;;4.39;100.00;100208.72;5041792;28;20621;-31
2021/01/03 10:09:32;;;;;;;5.57;5.00;;;;;;;4.25;100.00;100217.88;5041152;28;20290;-30
2021/01/03 10:12:21;;;;;;;6.77;5.20;;;;;;;4.22;100.00;100214.41;5040952;28;20221;-31
2021/01/03 10:15:36;;;;;;;7.27;5.03;;;;;;;4.37;100.00;100215.53;5046628;28;20616;-31
2021/01/03 10:18:34;;;;;;;6.10;5.50;;;;;;;4.31;100.00;100210.28;5062042;28;20576;-31
2021/01/03 10:21:34;;;;;;;6.20;5.30;;;;;;;4.27;100.00;100211.09;5061087;28;20313;-31
2021/01/03 10:24:23;;;;;;;9.57;6.93;;;;;;;4.36;100.00;100203.56;5061824;28;20308;-39
2021/01/03 10:27:16;;;;;;;7.67;6.50;;;;;;;4.52;100.00;100201.22;5061163;28;20402;-31
2021/01/03 10:30:05;;;;;;;6.97;5.83;;;;;;;4.31;100.00;100199.19;5061160;28;20644;-32
2021/01/03 10:32:50;;;;;;;6.10;5.37;;;;;;;4.36;100.00;100208.69;5061436;28;20230;-31
2021/01/03 10:35:37;;;;;;;6.83;5.90;;;;;;;4.36;100.00;100210.38;5061542;28;20197;-31
2021/01/03 10:38:24;;;;;;;7.40;5.87;;;;;;;4.62;100.00;100205.63;5060921;28;20294;-31
2021/01/03 10:41:11;;;;;;;7.00;5.80;;;;;;;4.70;100.00;100206.59;5061128;28;20198;-31
2021/01/03 10:43:57;;;;;;;9.10;6.37;;;;;;;4.60;100.00;100205.59;5060697;28;20197;-32
2021/01/03 10:46:46;;;;;;;6.83;6.13;;;;;;;4.33;100.00;100206.06;5060502;28;20265;-31
2021/01/03 10:49:32;;;;;;;8.97;6.47;;;;;;;4.52;100.00;100202.06;5060373;28;20257;-31
2021/01/03 10:52:19;;;;;;;7.53;6.30;;;;;;;4.61;100.00;100203.88;5060903;28;20232;-30
2021/01/03 10:55:08;;;;;;;7.90;6.57;;;;;;;4.54;100.00;100197.84;5060041;28;20211;-31
2021/01/03 10:57:57;;;;;;;9.70;6.50;;;;;;;4.25;100.00;100199.94;5061106;28;20203;-31
2021/01/03 11:00:47;;;;;;;8.10;6.60;;;;;;;4.27;100.00;100198.28;5060531;28;20213;-31
2021/01/03 11:03:40;;;;;;;9.03;7.47;;;;;;;4.56;100.00;100190.19;5060662;28;20289;-32
2021/01/03 11:06:46;;;;;;;9.93;7.17;;;;;;;4.37;100.00;100191.63;5060196;28;20203;-31
2021/01/03 11:09:35;;;;;;;9.20;6.83;;;;;;;4.17;100.00;100193.00;5061041;28;20349;-32
2021/01/03 11:12:25;;;;;;;9.47;6.70;;;;;;;4.27;100.00;100184.63;5060931;28;20213;-31
2021/01/03 11:15:11;;;;;;;12.30;8.37;;;;;;;4.31;100.00;100184.69;5060840;28;20245;-31
2021/01/03 11:18:12;;;;;;;11.00;7.47;;;;;;;4.53;100.00;100187.56;5060042;28;20225;-30
2021/01/03 11:20:59;;;;;;;10.43;7.83;;;;;;;4.35;100.00;100181.34;5060882;28;20207;-31
2021/01/03 11:23:45;;;;;;;11.07;7.83;;;;;;;4.30;100.00;100179.53;5060645;28;20522;-31
2021/01/03 11:26:33;;;;;;;12.03;8.20;;;;;;;4.31;100.00;100187.25;5060002;28;20226;-31
2021/01/03 11:29:23;;;;;;;11.57;7.97;;;;;;;4.50;100.00;100181.56;5060326;28;20257;-30
2021/01/03 11:32:19;;;;;;;15.37;9.10;;;;;;;4.47;100.00;100181.50;5059620;28;20271;-32
2021/01/03 11:35:06;;;;;;;12.53;8.53;;;;;;;4.36;100.00;100172.84;5060319;28;20682;-31
2021/01/03 11:37:58;;;;;;;13.53;8.23;;;;;;;4.54;100.00;100176.50;5060242;28;20207;-31
2021/01/03 11:40:45;;;;;;;13.43;8.23;;;;;;;4.60;100.00;100174.00;5060007;28;20198;-31
2021/01/03 11:43:31;;;;;;;12.33;8.57;;;;;;;4.56;100.00;100169.69;5062062;28;20600;-31
2021/01/03 11:46:19;;;;;;;13.13;8.77;;;;;;;4.55;100.00;100170.53;5061918;28;20204;-31
2021/01/03 11:49:06;;;;;;;16.83;9.43;;;;;;;4.58;100.00;100165.44;5061092;28;20199;-30
2021/01/03 11:51:52;;;;;;;15.00;8.97;;;;;;;4.30;100.00;100159.06;5061037;28;20604;-30
2021/01/03 11:54:38;;;;;;;13.23;8.47;;;;;;;4.36;100.00;100166.84;5060376;28;20623;-30
2021/01/03 11:57:27;;;;;;;11.43;8.30;;;;;;;4.22;100.00;100163.19;5060470;28;20201;-31
2021/01/03 12:00:16;;;;;;;16.37;9.97;;;;;;;4.41;100.00;100163.50;5060651;28;20198;-31
2021/01/03 12:03:03;;;;;;;13.10;7.60;;;;;;;4.00;100.00;100159.44;5060857;28;20205;-30
2021/01/03 12:05:50;;;;;;;14.07;9.20;;;;;;;4.09;100.00;100164.72;5060216;28;20228;-30
2021/01/03 12:08:35;;;;;;;16.83;10.53;;;;;;;4.41;100.00;100171.19;5060373;28;20201;-30
2021/01/03 12:11:27;;;;;;;13.77;9.07;;;;;;;4.00;100.00;100162.00;5060097;28;20200;-30
2021/01/03 12:14:19;;;;;;;12.43;8.47;;;;;;;3.87;100.00;100160.94;5059496;28;20337;-30
2021/01/03 12:17:07;;;;;;;14.97;9.33;;;;;;;3.92;100.00;100161.03;5059274;28;20207;-30
2021/01/03 12:19:57;;;;;;;17.07;9.60;;;;;;;3.96;100.00;100158.56;5059809;28;20201;-33
2021/01/03 12:22:43;;;;;;;12.90;8.20;;;;;;;4.13;100.00;100153.69;5059935;28;20256;-30
2021/01/03 12:25:29;;;;;;;17.17;9.67;;;;;;;3.95;100.00;100161.94;5059387;28;20294;-30
2021/01/03 12:28:16;;;;;;;15.23;9.57;;;;;;;3.78;100.00;100166.78;5058865;28;20201;-30
2021/01/03 12:31:01;;;;;;;16.70;10.83;;;;;;;3.73;100.00;100159.88;5058898;28;20215;-30
2021/01/03 12:33:48;;;;;;;16.50;9.63;;;;;;;3.73;100.00;100168.41;5061017;28;20326;-30
2021/01/03 12:36:35;;;;;;;14.70;9.50;;;;;;;3.72;100.00;100148.78;5059467;28;20201;-31
2021/01/03 12:39:23;;;;;;;14.40;8.90;;;;;;;3.67;100.00;100149.53;5059607;28;20221;-30
2021/01/03 12:42:11;;;;;;;15.53;8.93;;;;;;;3.80;100.00;100156.56;5061400;28;20202;-30
2021/01/03 12:44:57;;;;;;;14.83;9.57;;;;;;;3.82;100.00;100149.78;5061476;28;20260;-30
2021/01/03 12:47:43;;;;;;;15.83;9.57;;;;;;;3.85;100.00;100147.28;5060446;28;20201;-31
2021/01/03 12:50:29;;;;;;;17.57;10.97;;;;;;;3.72;100.00;100148.78;5060412;28;20201;-31
2021/01/03 12:53:22;;;;;;;19.20;11.07;;;;;;;3.96;100.00;100147.47;5059943;28;20228;-31
2021/01/03 12:56:09;;;;;;;17.23;10.57;;;;;;;3.99;100.00;100139.84;5060087;28;20212;-31
2021/01/03 12:59:00;;;;;;;19.37;10.97;;;;;;;4.03;100.00;100144.13;5058703;28;20236;-31
2021/01/03 13:01:50;;;;;;;19.10;11.50;;;;;;;4.10;100.00;100145.97;5058634;28;20644;-30
2021/01/03 13:04:56;;;;;;;13.07;7.87;;;;;;;3.75;100.00;100136.03;5058040;28;20208;-31
2021/01/03 13:07:42;;;;;;;14.80;8.10;;;;;;;3.89;100.00;100141.38;5059548;28;20200;-31